Time;durP1;ratioP1;P1;durP2;ratioP2;P2;SDS_P1;SDS_P2;PMS_P1;PMS_P2;Temp;Humidity;BMP_temperature;BMP_pressure;BME280_temperature;BME280_humidity;BME280_pressure;Samples;Min_cycle;Max_cycle;Signal;HPM_P1;HPM_P2
2021/08/30 00:00:42;;;;;;;13.90;5.55;;;;;;;15.67;100.00;96071.75;4973923;28;20219;-69
2021/08/30 00:03:08;;;;;;;11.00;5.00;;;;;;;15.78;100.00;96077.22;4975133;28;20286;-68
2021/08/30 00:05:36;;;;;;;11.98;6.10;;;;;;;15.87;100.00;96071.47;4973517;28;20223;-69
2021/08/30 00:08:04;;;;;;;11.27;6.07;;;;;;;15.79;100.00;96070.88;4974812;28;20223;-70
2021/08/30 00:10:31;;;;;;;12.82;6.32;;;;;;;15.89;100.00;96072.03;4977925;28;20211;-68
2021/08/30 00:12:57;;;;;;;10.95;5.38;;;;;;;15.51;100.00;96067.75;4978371;28;20857;-67
2021/08/30 00:15:24;;;;;;;14.70;6.68;;;;;;;15.90;100.00;96072.88;4976792;28;20250;-69
2021/08/30 00:17:51;;;;;;;16.38;6.93;;;;;;;15.80;100.00;96063.75;4977699;28;20218;-69
2021/08/30 00:20:20;;;;;;;14.73;7.07;;;;;;;15.92;100.00;96068.16;4978124;28;20235;-69
2021/08/30 00:22:48;;;;;;;16.00;6.68;;;;;;;15.69;100.00;96073.19;4977899;28;20214;-68
2021/08/30 00:25:14;;;;;;;14.88;6.65;;;;;;;15.81;100.00;96068.84;4976846;28;20230;-69
2021/08/30 00:27:41;;;;;;;16.42;6.80;;;;;;;15.96;100.00;96064.88;4977807;28;20599;-69
2021/08/30 00:30:09;;;;;;;15.75;6.95;;;;;;;15.88;100.00;96064.28;4974278;28;20672;-68
2021/08/30 00:32:36;;;;;;;12.88;5.38;;;;;;;15.75;100.00;96063.56;4976957;28;20203;-68
2021/08/30 00:35:03;;;;;;;10.07;4.65;;;;;;;15.62;100.00;96064.44;4977197;28;20207;-69
2021/08/30 00:37:30;;;;;;;10.77;5.18;;;;;;;15.56;100.00;96053.84;4976758;28;20199;-69
2021/08/30 00:39:58;;;;;;;13.10;4.82;;;;;;;15.92;100.00;96053.03;4976848;28;20207;-70
2021/08/30 00:42:24;;;;;;;8.48;4.75;;;;;;;15.69;100.00;96048.47;4977102;28;20207;-69
2021/08/30 00:44:52;;;;;;;8.63;4.50;;;;;;;15.54;100.00;96047.91;4977772;28;20211;-68
2021/08/30 00:47:19;;;;;;;10.50;5.18;;;;;;;15.76;100.00;96046.56;4976614;28;20258;-69
2021/08/30 00:49:46;;;;;;;9.73;4.35;;;;;;;15.62;100.00;96039.72;4977279;28;20219;-70
2021/08/30 00:52:12;;;;;;;9.27;5.03;;;;;;;15.73;100.00;96042.50;4977663;28;20211;-69
2021/08/30 00:54:39;;;;;;;10.15;4.85;;;;;;;15.85;100.00;96033.63;4978976;28;20234;-69
2021/08/30 00:57:07;;;;;;;16.70;5.43;;;;;;;15.97;100.00;96039.91;4976616;28;20223;-68
2021/08/30 00:59:38;;;;;;;12.40;4.78;;;;;;;15.70;100.00;96040.28;4976818;28;20207;-68
2021/08/30 01:02:05;;;;;;;11.18;4.15;;;;;;;15.46;100.00;96048.97;4976148;28;20211;-68
2021/08/30 01:04:31;;;;;;;9.35;5.00;;;;;;;15.54;100.00;96051.41;4977294;28;20592;-68
2021/08/30 01:07:04;;;;;;;10.52;5.15;;;;;;;15.88;100.00;96043.88;4975627;28;20678;-69
2021/08/30 01:09:37;;;;;;;11.75;5.53;;;;;;;15.84;100.00;96044.50;4976025;28;20215;-67
2021/08/30 01:12:11;;;;;;;10.70;6.03;;;;;;;15.77;100.00;96048.22;4976324;28;20214;-69
2021/08/30 01:14:49;;;;;;;11.95;5.13;;;;;;;15.83;100.00;96044.72;4975691;28;20202;-68
2021/08/30 01:17:18;;;;;;;11.52;5.40;;;;;;;15.71;100.00;96041.09;4975460;28;20203;-69
2021/08/30 01:20:01;;;;;;;12.85;6.15;;;;;;;15.91;100.00;96043.44;4976239;28;20214;-69
2021/08/30 01:22:29;;;;;;;12.43;5.80;;;;;;;15.75;100.00;96031.69;4976598;28;20207;-69
2021/08/30 01:24:57;;;;;;;12.18;5.35;;;;;;;15.89;100.00;96044.66;4975831;28;20215;-68
2021/08/30 01:27:25;;;;;;;9.68;5.07;;;;;;;16.02;100.00;96040.06;4975505;28;20223;-69
2021/08/30 01:29:59;;;;;;;12.85;5.88;;;;;;;15.95;100.00;96038.50;4973414;28;20938;-68
2021/08/30 01:32:33;;;;;;;12.20;5.28;;;;;;;15.99;100.00;96039.69;4975732;28;20687;-69
2021/08/30 01:35:03;;;;;;;6.80;4.35;;;;;;;15.92;100.00;96037.09;4976822;28;20211;-69
2021/08/30 01:37:32;;;;;;;9.77;4.80;;;;;;;16.03;100.00;96028.41;4975830;28;20207;-69
2021/08/30 01:39:59;;;;;;;10.15;4.65;;;;;;;15.90;100.00;96039.13;4976599;28;20204;-68
2021/08/30 01:42:27;;;;;;;11.68;5.18;;;;;;;15.81;100.00;96036.13;4976170;28;21113;-69
2021/08/30 01:44:54;;;;;;;12.65;5.00;;;;;;;16.02;100.00;96024.13;4976237;28;20210;-69
2021/08/30 01:47:21;;;;;;;10.10;4.95;;;;;;;15.82;100.00;96027.94;4975093;28;20234;-69
2021/08/30 01:50:00;;;;;;;9.52;5.22;;;;;;;16.00;100.00;96028.03;4976487;28;20219;-69
2021/08/30 01:52:27;;;;;;;8.27;5.10;;;;;;;15.80;100.00;96026.53;4976178;28;20203;-69
2021/08/30 01:54:54;;;;;;;13.93;5.40;;;;;;;15.70;100.00;96023.53;4975581;28;20219;-69
2021/08/30 01:57:23;;;;;;;9.98;4.85;;;;;;;15.80;100.00;96015.91;4975950;28;20203;-69
2021/08/30 02:02:36;;;;;;;7.10;4.55;;;;;;;15.78;100.00;96020.63;4975577;28;20218;-69
2021/08/30 02:05:04;;;;;;;8.10;4.63;;;;;;;15.80;100.00;96022.03;4975683;28;20211;-68
2021/08/30 02:07:31;;;;;;;9.10;4.93;;;;;;;15.84;100.00;96014.47;4975770;28;20268;-68
2021/08/30 02:09:57;;;;;;;7.15;4.30;;;;;;;15.85;100.00;96017.69;4977156;28;20207;-68
2021/08/30 02:12:23;;;;;;;8.70;4.88;;;;;;;15.67;100.00;96008.84;4975546;28;20210;-68
2021/08/30 02:14:50;;;;;;;8.60;4.72;;;;;;;15.85;100.00;96017.69;4975458;28;20215;-68
2021/08/30 02:17:27;;;;;;;7.53;4.00;;;;;;;16.18;100.00;96007.66;4976073;28;20200;-69
2021/08/30 02:20:01;;;;;;;7.88;4.43;;;;;;;16.04;100.00;96000.81;4971950;28;20207;-70
2021/08/30 02:22:35;;;;;;;5.05;3.40;;;;;;;15.72;100.00;96000.22;4976081;28;20207;-68
2021/08/30 02:25:07;;;;;;;6.07;3.45;;;;;;;15.78;100.00;96005.47;4975647;28;20210;-68
2021/08/30 02:27:40;;;;;;;10.38;3.92;;;;;;;15.64;100.00;95998.63;4975735;28;20234;-68
2021/08/30 02:30:11;;;;;;;8.95;4.00;;;;;;;15.73;100.00;95997.34;4972361;28;21074;-68
2021/08/30 02:32:40;;;;;;;13.10;4.18;;;;;;;15.69;100.00;95990.03;4974721;28;20210;-68
2021/08/30 02:35:09;;;;;;;7.13;4.15;;;;;;;15.89;100.00;95992.31;4975408;28;20729;-68
2021/08/30 02:37:39;;;;;;;9.52;4.45;;;;;;;15.79;100.00;95985.84;4975473;28;20211;-68
2021/08/30 02:40:08;;;;;;;7.63;3.95;;;;;;;15.80;100.00;95997.31;4975438;28;20209;-69
2021/08/30 02:42:36;;;;;;;7.80;4.22;;;;;;;15.66;100.00;95996.56;4976342;28;20203;-68
2021/08/30 02:45:04;;;;;;;9.85;3.28;;;;;;;15.54;100.00;95994.81;4975175;28;20218;-69
2021/08/30 02:47:31;;;;;;;6.95;3.67;;;;;;;15.65;100.00;95994.13;4974608;28;20242;-69
2021/08/30 02:49:58;;;;;;;5.82;3.20;;;;;;;15.54;100.00;95994.81;4975266;28;20570;-69
2021/08/30 02:52:27;;;;;;;8.13;3.53;;;;;;;15.62;100.00;95991.91;4976111;28;20213;-69
2021/08/30 02:54:55;;;;;;;7.80;5.10;;;;;;;15.76;100.00;95985.47;4974487;28;20226;-68
2021/08/30 02:57:22;;;;;;;9.13;4.68;;;;;;;15.59;100.00;95984.34;4974950;28;20202;-69
2021/08/30 02:59:50;;;;;;;5.97;3.70;;;;;;;15.48;100.00;95982.41;4975441;28;20594;-70
2021/08/30 03:02:18;;;;;;;5.63;3.80;;;;;;;15.62;100.00;95986.59;4975423;28;20205;-69
2021/08/30 03:04:45;;;;;;;8.23;4.07;;;;;;;15.64;100.00;95982.69;4975123;28;20225;-69
2021/08/30 03:07:13;;;;;;;6.63;3.72;;;;;;;15.67;100.00;95982.28;4974699;28;20231;-69
2021/08/30 03:09:40;;;;;;;5.15;3.22;;;;;;;15.49;100.00;95976.03;4975390;28;20207;-68
2021/08/30 03:12:09;;;;;;;10.52;4.60;;;;;;;15.97;100.00;95970.81;4975322;28;20199;-70
2021/08/30 03:14:39;;;;;;;12.77;5.07;;;;;;;15.66;100.00;95970.00;4975449;28;20214;-69
2021/08/30 03:17:10;;;;;;;8.50;3.92;;;;;;;15.52;100.00;95972.97;4974677;28;20737;-68
2021/08/30 03:19:39;;;;;;;7.10;3.83;;;;;;;15.45;100.00;95970.34;4975727;28;20579;-69
2021/08/30 03:22:06;;;;;;;8.75;4.45;;;;;;;15.56;100.00;95968.84;4974942;28;20207;-69
2021/08/30 03:24:33;;;;;;;10.25;4.72;;;;;;;15.50;100.00;95967.03;4974951;28;20203;-69
2021/08/30 03:27:00;;;;;;;10.23;5.13;;;;;;;15.53;100.00;95969.25;4974845;28;20242;-69
2021/08/30 03:29:30;;;;;;;10.00;4.90;;;;;;;15.99;100.00;95959.97;4971878;28;20214;-69
2021/08/30 03:31:57;;;;;;;10.80;4.80;;;;;;;15.62;100.00;95952.88;4974707;28;20218;-69
2021/08/30 03:34:24;;;;;;;10.05;4.70;;;;;;;15.44;100.00;95959.91;4975627;28;20203;-69
2021/08/30 03:36:51;;;;;;;9.40;5.18;;;;;;;15.48;100.00;95956.63;4973818;28;20230;-68
2021/08/30 03:39:19;;;;;;;11.18;5.55;;;;;;;15.59;100.00;95952.47;4975273;28;20203;-69
2021/08/30 03:41:47;;;;;;;8.32;5.20;;;;;;;15.60;100.00;95954.91;4974823;28;20210;-69
2021/08/30 03:44:14;;;;;;;11.80;6.45;;;;;;;15.44;100.00;95946.66;4978222;28;20207;-70
2021/08/30 03:46:42;;;;;;;8.30;4.80;;;;;;;15.77;100.00;95947.25;4976933;28;20238;-69
2021/08/30 03:49:09;;;;;;;9.27;4.65;;;;;;;15.60;100.00;95944.28;4978508;28;20219;-68
2021/08/30 03:51:37;;;;;;;9.68;4.97;;;;;;;15.68;100.00;95951.19;4977799;28;20999;-68
2021/08/30 03:54:04;;;;;;;10.00;5.15;;;;;;;15.66;100.00;95947.97;4978112;28;20223;-69
2021/08/30 03:56:31;;;;;;;10.75;4.60;;;;;;;15.52;100.00;95951.72;4977138;28;20699;-69
2021/08/30 03:58:59;;;;;;;8.10;4.22;;;;;;;15.66;100.00;95948.75;4978224;28;20207;-69
2021/08/30 04:01:26;;;;;;;15.30;5.50;;;;;;;15.71;100.00;95940.16;4977336;28;20218;-69
2021/08/30 04:03:57;;;;;;;9.65;5.05;;;;;;;15.73;100.00;95948.72;4977679;28;20207;-68
2021/08/30 04:06:26;;;;;;;10.27;4.93;;;;;;;15.50;100.00;95948.44;4977312;28;20249;-69
2021/08/30 04:08:52;;;;;;;7.68;4.47;;;;;;;15.45;100.00;95945.63;4977560;28;20227;-69
2021/08/30 04:11:19;;;;;;;10.63;4.22;;;;;;;15.46;100.00;95948.06;4977913;28;20207;-69
2021/08/30 04:13:46;;;;;;;9.77;5.43;;;;;;;15.53;100.00;95948.00;4977448;28;20241;-69
2021/08/30 04:16:12;;;;;;;10.77;5.13;;;;;;;15.50;100.00;95940.50;4976914;28;20227;-69
2021/08/30 04:18:39;;;;;;;9.57;4.90;;;;;;;15.45;100.00;95940.31;4977689;28;20203;-68
2021/08/30 04:21:07;;;;;;;10.05;5.10;;;;;;;15.64;100.00;95940.19;4977767;28;20214;-69
2021/08/30 04:23:33;;;;;;;9.90;5.30;;;;;;;15.51;100.00;95950.09;4977479;28;20683;-69
2021/08/30 04:26:00;;;;;;;11.35;4.57;;;;;;;15.48;100.00;95937.25;4977645;28;20227;-69
2021/08/30 04:28:26;;;;;;;11.32;5.53;;;;;;;15.40;100.00;95946.28;4973706;28;20231;-68
2021/08/30 04:30:53;;;;;;;11.57;5.90;;;;;;;15.44;100.00;95936.03;4977627;28;20207;-69
2021/08/30 04:33:21;;;;;;;8.43;4.78;;;;;;;15.14;100.00;95944.75;4978072;28;20203;-68
2021/08/30 04:35:48;;;;;;;12.82;5.93;;;;;;;15.29;100.00;95946.13;4976048;28;20223;-69
2021/08/30 04:38:15;;;;;;;9.52;5.50;;;;;;;15.47;100.00;95943.59;4977076;28;20574;-69
2021/08/30 04:40:42;;;;;;;9.85;5.53;;;;;;;15.28;100.00;95939.19;4977448;28;20207;-68
2021/08/30 04:43:09;;;;;;;9.68;5.80;;;;;;;15.40;100.00;95950.75;4978715;28;20208;-69
2021/08/30 04:45:36;;;;;;;10.93;5.63;;;;;;;15.25;100.00;95960.88;4975986;28;20227;-69
2021/08/30 04:48:03;;;;;;;12.50;5.75;;;;;;;15.35;100.00;95953.22;4977011;28;20270;-68
2021/08/30 04:50:29;;;;;;;10.27;5.78;;;;;;;15.37;100.00;95961.81;4977482;28;20221;-69
2021/08/30 04:52:56;;;;;;;9.30;5.28;;;;;;;15.17;100.00;95957.59;4976943;28;20204;-68
2021/08/30 04:55:24;;;;;;;10.85;5.93;;;;;;;15.59;100.00;95944.50;4975324;28;20242;-69
2021/08/30 04:57:50;;;;;;;14.25;5.95;;;;;;;15.22;100.00;95950.66;4977437;28;20210;-69
2021/08/30 05:00:17;;;;;;;16.05;6.15;;;;;;;15.38;100.00;95955.47;4976989;28;20805;-70
2021/08/30 05:02:43;;;;;;;13.50;6.47;;;;;;;15.42;100.00;95960.13;4977322;28;20203;-69
2021/08/30 05:05:10;;;;;;;11.55;6.38;;;;;;;15.55;100.00;95962.72;4976856;28;20719;-69
2021/08/30 05:07:37;;;;;;;12.82;6.85;;;;;;;15.39;100.00;95962.44;4977015;28;20235;-70
2021/08/30 05:10:04;;;;;;;11.43;6.05;;;;;;;15.42;100.00;95965.44;4976840;28;20199;-69
2021/08/30 05:12:33;;;;;;;13.80;6.40;;;;;;;15.62;100.00;95960.84;4977000;28;20207;-68
2021/08/30 05:14:59;;;;;;;10.95;6.07;;;;;;;15.38;100.00;95960.78;4976133;28;20655;-68
2021/08/30 05:17:26;;;;;;;11.55;5.93;;;;;;;15.31;100.00;95967.97;4976100;28;20212;-68
2021/08/30 05:19:52;;;;;;;13.63;6.55;;;;;;;15.34;100.00;95964.91;4976161;28;20678;-69
2021/08/30 05:22:19;;;;;;;13.98;6.22;;;;;;;15.51;100.00;95971.34;4977238;28;20203;-67
2021/08/30 05:24:46;;;;;;;14.30;6.78;;;;;;;15.28;100.00;95965.75;4977025;28;20286;-69
2021/08/30 05:27:13;;;;;;;11.43;5.10;;;;;;;15.37;100.00;95975.09;4975945;28;20234;-68
2021/08/30 05:29:41;;;;;;;11.73;6.65;;;;;;;15.62;100.00;95973.31;4973140;28;20207;-68
2021/08/30 05:32:08;;;;;;;10.48;6.00;;;;;;;15.38;100.00;95971.41;4976593;28;20207;-68
2021/08/30 05:34:34;;;;;;;13.00;6.43;;;;;;;15.26;100.00;95973.09;4976861;28;20395;-69
2021/08/30 05:37:01;;;;;;;12.45;6.50;;;;;;;15.53;100.00;95969.25;4975459;28;20238;-68
2021/08/30 05:39:27;;;;;;;12.38;4.63;;;;;;;15.43;100.00;95967.09;4976651;28;20204;-69
2021/08/30 05:41:54;;;;;;;12.13;6.07;;;;;;;15.41;100.00;95973.63;4976601;28;20214;-68
2021/08/30 05:44:20;;;;;;;11.77;5.60;;;;;;;15.45;100.00;95966.88;4976222;28;20223;-68
2021/08/30 05:46:50;;;;;;;12.00;6.00;;;;;;;15.62;100.00;95973.31;4975540;28;20231;-68
2021/08/30 05:49:16;;;;;;;13.05;6.15;;;;;;;15.46;100.00;95963.19;4976217;28;20280;-68
2021/08/30 05:51:43;;;;;;;13.25;6.13;;;;;;;15.44;100.00;95973.19;4975830;28;20298;-69
2021/08/30 05:54:09;;;;;;;13.68;6.90;;;;;;;15.64;100.00;95973.91;4976346;28;20215;-68
2021/08/30 05:56:36;;;;;;;14.25;7.18;;;;;;;15.51;100.00;95976.66;4976135;28;20228;-69
2021/08/30 05:59:02;;;;;;;14.68;6.88;;;;;;;15.54;100.00;95970.91;4975969;28;20214;-69
2021/08/30 06:01:29;;;;;;;7.40;3.45;;;;;;;15.31;100.00;95974.09;4975661;28;20261;-68
2021/08/30 06:03:57;;;;;;;14.05;7.10;;;;;;;15.61;100.00;95971.69;4977341;28;20214;-69
2021/08/30 06:06:23;;;;;;;13.93;6.97;;;;;;;15.54;100.00;95970.91;4974754;28;20229;-69
2021/08/30 06:08:50;;;;;;;16.75;6.53;;;;;;;15.56;100.00;95972.31;4975847;28;20231;-68
2021/08/30 06:11:16;;;;;;;12.98;6.35;;;;;;;15.58;100.00;95977.41;4976829;28;21433;-68
2021/08/30 06:13:43;;;;;;;14.95;6.50;;;;;;;15.78;100.00;95962.16;4975304;28;20203;-69
2021/08/30 06:16:09;;;;;;;15.77;6.70;;;;;;;16.09;100.00;95960.31;4975509;28;20223;-68
2021/08/30 06:18:36;;;;;;;16.05;7.75;;;;;;;15.90;100.00;95967.38;4975732;28;20212;-69
2021/08/30 06:21:04;;;;;;;13.18;6.18;;;;;;;15.81;100.00;95967.88;4975533;28;20204;-68
2021/08/30 06:23:31;;;;;;;12.82;6.03;;;;;;;15.59;100.00;95971.06;4975223;28;20844;-69
2021/08/30 06:25:59;;;;;;;15.35;6.60;;;;;;;15.64;100.00;95971.25;4975665;28;20227;-69
2021/08/30 06:28:25;;;;;;;19.00;9.07;;;;;;;15.81;100.00;95972.34;4973115;28;20235;-68
2021/08/30 06:30:52;;;;;;;22.80;9.80;;;;;;;15.92;100.00;95968.00;4975444;28;20211;-68
2021/08/30 06:33:18;;;;;;;23.63;10.27;;;;;;;15.90;100.00;95967.38;4975836;28;20204;-68
2021/08/30 06:35:45;;;;;;;26.73;10.63;;;;;;;15.84;100.00;95963.97;4976260;28;20246;-68
2021/08/30 06:38:14;;;;;;;19.13;9.32;;;;;;;15.86;100.00;95976.00;4974877;28;20272;-69
2021/08/30 06:40:41;;;;;;;15.85;8.27;;;;;;;15.67;100.00;95976.13;4975163;28;20211;-68
2021/08/30 06:43:08;;;;;;;21.98;9.38;;;;;;;15.73;100.00;95975.28;4975775;28;20207;-68
2021/08/30 06:45:34;;;;;;;21.40;10.00;;;;;;;15.72;100.00;95968.31;4974941;28;20231;-70
2021/08/30 06:48:01;;;;;;;20.45;9.05;;;;;;;15.73;100.00;95969.97;4974826;28;20233;-68
2021/08/30 06:50:28;;;;;;;22.85;9.38;;;;;;;15.92;100.00;95970.66;4975848;28;20212;-69
2021/08/30 06:52:54;;;;;;;19.13;8.55;;;;;;;15.88;100.00;95972.13;4975142;28;20207;-69
2021/08/30 06:55:22;;;;;;;22.27;9.35;;;;;;;16.16;100.00;95974.34;4974403;28;20234;-68
2021/08/30 06:57:49;;;;;;;18.65;8.60;;;;;;;15.96;100.00;95977.16;4975017;28;20203;-69
2021/08/30 07:00:17;;;;;;;15.98;7.43;;;;;;;15.99;100.00;95979.38;4975521;28;20218;-69
2021/08/30 07:02:44;;;;;;;13.50;7.05;;;;;;;15.93;100.00;95977.56;4974620;28;20203;-69
2021/08/30 07:05:11;;;;;;;16.20;7.55;;;;;;;15.96;100.00;95971.84;4975321;28;20227;-69
2021/08/30 07:07:38;;;;;;;18.48;7.05;;;;;;;16.02;100.00;95978.94;4974828;28;20207;-70
2021/08/30 07:10:05;;;;;;;12.75;6.15;;;;;;;16.17;100.00;95974.13;4974848;28;20203;-69
2021/08/30 07:12:33;;;;;;;15.57;6.43;;;;;;;16.46;100.00;95977.97;4975168;28;20293;-70
2021/08/30 07:14:59;;;;;;;14.18;6.35;;;;;;;16.14;100.00;95969.25;4975518;28;20211;-70
2021/08/30 07:17:26;;;;;;;18.60;8.35;;;;;;;16.22;100.00;95974.28;4975488;28;20221;-69
2021/08/30 07:19:52;;;;;;;18.33;8.10;;;;;;;16.13;100.00;95972.13;4981112;28;20213;-69
2021/08/30 07:22:19;;;;;;;17.27;7.70;;;;;;;16.28;100.00;95981.44;4981390;28;20207;-70
2021/08/30 07:24:45;;;;;;;17.38;8.27;;;;;;;16.28;100.00;95986.75;4980951;28;20199;-69
2021/08/30 07:27:12;;;;;;;15.30;7.57;;;;;;;16.29;100.00;95980.38;4980616;28;20657;-69
2021/08/30 07:29:40;;;;;;;13.30;6.20;;;;;;;16.53;100.00;95985.69;4979188;28;20663;-69
2021/08/30 07:32:07;;;;;;;9.25;5.15;;;;;;;16.56;100.00;95984.44;4981411;28;20206;-70
2021/08/30 07:34:34;;;;;;;10.57;4.20;;;;;;;16.53;100.00;95991.00;4981003;28;20214;-68
2021/08/30 07:37:00;;;;;;;7.10;4.03;;;;;;;16.53;100.00;95991.00;4980323;28;20227;-69
2021/08/30 07:39:27;;;;;;;5.10;3.17;;;;;;;16.57;100.00;95986.03;4981107;28;20199;-69
2021/08/30 07:41:53;;;;;;;3.55;2.70;;;;;;;16.59;100.00;95994.63;4980474;28;20449;-69
2021/08/30 07:44:21;;;;;;;4.65;3.03;;;;;;;16.66;100.00;95995.38;4980579;28;20199;-70
2021/08/30 07:46:50;;;;;;;5.45;2.92;;;;;;;16.72;100.00;95995.31;4980692;28;20231;-71
2021/08/30 07:49:16;;;;;;;5.22;3.42;;;;;;;16.56;100.00;96003.06;4979991;28;20230;-68
2021/08/30 07:51:43;;;;;;;4.72;3.20;;;;;;;16.47;100.00;96003.53;4980411;28;20395;-69
2021/08/30 07:54:10;;;;;;;4.72;3.05;;;;;;;16.92;100.00;96001.25;4980526;28;20690;-69
2021/08/30 07:56:38;;;;;;;4.78;3.15;;;;;;;16.76;100.00;96004.50;4980817;28;20230;-69
2021/08/30 07:59:05;;;;;;;4.38;2.67;;;;;;;16.81;100.00;96004.63;4980743;28;20211;-68
2021/08/30 08:01:32;;;;;;;4.68;2.72;;;;;;;16.70;100.00;96005.38;4981272;28;20213;-68
2021/08/30 08:04:00;;;;;;;3.08;2.10;;;;;;;16.83;100.00;96001.78;4981023;28;20207;-69
2021/08/30 08:06:27;;;;;;;4.05;2.70;;;;;;;16.54;100.00;96007.78;4979879;28;20732;-69
2021/08/30 08:08:54;;;;;;;4.82;2.78;;;;;;;16.65;100.00;96010.53;4980838;28;20238;-69
2021/08/30 08:11:20;;;;;;;4.85;2.67;;;;;;;16.64;100.00;96008.09;4981175;28;20200;-68
2021/08/30 08:13:47;;;;;;;4.68;3.15;;;;;;;16.86;100.00;96009.31;4980946;28;20210;-70
2021/08/30 08:16:14;;;;;;;5.50;3.08;;;;;;;16.75;100.00;96016.16;4979933;28;20234;-69
2021/08/30 08:18:40;;;;;;;7.13;3.03;;;;;;;16.64;100.00;96024.06;4980809;28;20207;-69
2021/08/30 08:21:08;;;;;;;4.80;3.05;;;;;;;16.85;100.00;96020.97;4980568;28;20704;-69
2021/08/30 08:23:35;;;;;;;5.43;3.40;;;;;;;16.84;100.00;96027.31;4980345;28;20222;-69
2021/08/30 08:26:01;;;;;;;4.70;3.40;;;;;;;16.69;100.00;96033.00;4980207;28;20228;-69
2021/08/30 08:28:28;;;;;;;5.25;3.50;;;;;;;16.79;100.00;96032.50;4977292;28;20227;-70
2021/08/30 08:30:55;;;;;;;7.38;3.85;;;;;;;17.15;100.00;96039.47;4976761;28;20296;-69
2021/08/30 08:33:21;;;;;;;6.45;3.95;;;;;;;17.33;100.00;96036.03;4976363;28;20207;-70
2021/08/30 08:35:48;;;;;;;6.65;3.85;;;;;;;17.25;100.00;96039.00;4975954;28;20442;-70
2021/08/30 08:38:16;;;;;;;6.85;4.50;;;;;;;17.66;100.00;96037.25;4977047;28;20207;-69
2021/08/30 08:40:42;;;;;;;6.13;4.10;;;;;;;17.35;100.00;96034.78;4976565;28;20204;-69
2021/08/30 08:43:13;;;;;;;4.07;2.70;;;;;;;17.21;100.00;96040.47;4977202;28;20207;-70
2021/08/30 08:45:41;;;;;;;2.58;1.90;;;;;;;17.40;100.00;96045.56;4975239;28;20231;-68
2021/08/30 08:48:08;;;;;;;2.38;1.50;;;;;;;17.05;100.00;96038.38;4976297;28;20707;-68
2021/08/30 08:50:35;;;;;;;4.90;1.33;;;;;;;16.70;100.00;96055.09;4977136;28;20238;-69
2021/08/30 08:53:05;;;;;;;2.50;1.00;;;;;;;16.80;100.00;96050.94;4977090;28;20698;-70
2021/08/30 08:55:34;;;;;;;1.65;0.80;;;;;;;16.59;100.00;96063.81;4975489;28;20319;-69
2021/08/30 08:58:03;;;;;;;3.33;0.95;;;;;;;16.70;100.00;96066.56;4977109;28;20211;-69
2021/08/30 09:00:30;;;;;;;1.45;0.68;;;;;;;16.56;100.00;96072.22;4977380;28;20225;-70
2021/08/30 09:02:57;;;;;;;1.85;0.70;;;;;;;16.49;100.00;96069.59;4976871;28;20208;-69
2021/08/30 09:05:24;;;;;;;2.17;0.70;;;;;;;16.38;100.00;96069.50;4975675;28;20223;-70
2021/08/30 09:07:52;;;;;;;2.28;0.90;;;;;;;16.48;100.00;96072.47;4976811;28;20219;-70
2021/08/30 09:10:23;;;;;;;4.32;0.75;;;;;;;16.65;100.00;96068.25;4977121;28;20227;-69
2021/08/30 09:12:52;;;;;;;1.30;0.70;;;;;;;16.67;100.00;96074.16;4976427;28;20663;-69
2021/08/30 09:15:21;;;;;;;2.78;0.90;;;;;;;16.78;100.00;96073.47;4975859;28;20227;-69
2021/08/30 09:17:49;;;;;;;1.10;0.80;;;;;;;16.72;100.00;96071.66;4976324;28;20252;-69
2021/08/30 09:20:16;;;;;;;1.60;0.70;;;;;;;16.66;100.00;96085.84;4977262;28;20206;-69
2021/08/30 09:22:43;;;;;;;2.03;1.05;;;;;;;16.66;100.00;96080.50;4976659;28;20223;-69
2021/08/30 09:25:11;;;;;;;2.28;0.98;;;;;;;16.74;100.00;96086.38;4976770;28;20222;-68
2021/08/30 09:27:41;;;;;;;3.28;0.60;;;;;;;16.78;100.00;96081.44;4976300;28;20203;-69
2021/08/30 09:30:13;;;;;;;2.22;0.90;;;;;;;16.93;100.00;96085.41;4973926;28;20256;-69
2021/08/30 09:32:40;;;;;;;1.50;0.70;;;;;;;16.58;100.00;96088.78;4976908;28;20207;-70
2021/08/30 09:35:09;;;;;;;1.60;0.73;;;;;;;16.77;100.00;96093.13;4976776;28;20207;-69
2021/08/30 09:37:39;;;;;;;2.70;0.80;;;;;;;16.78;100.00;96092.09;4975298;28;20211;-69
2021/08/30 09:40:08;;;;;;;2.40;1.00;;;;;;;16.79;100.00;96085.72;4976285;28;20203;-69
2021/08/30 09:42:34;;;;;;;1.13;0.90;;;;;;;16.67;100.00;96088.28;4976705;28;20207;-69
2021/08/30 09:45:11;;;;;;;1.63;0.90;;;;;;;16.61;100.00;96086.50;4976603;28;20207;-69
2021/08/30 09:47:48;;;;;;;1.63;0.90;;;;;;;16.80;100.00;96095.34;4975552;28;20206;-69
2021/08/30 09:50:15;;;;;;;1.50;0.77;;;;;;;16.47;100.00;96094.81;4976538;28;20272;-69
2021/08/30 09:52:41;;;;;;;1.05;0.80;;;;;;;16.75;100.00;96100.50;4976249;28;20693;-70
2021/08/30 09:55:08;;;;;;;1.65;0.80;;;;;;;16.91;100.00;96083.97;4976074;28;20235;-69
2021/08/30 09:57:37;;;;;;;1.15;0.70;;;;;;;16.88;100.00;96087.06;4975928;28;20218;-69
2021/08/30 10:00:06;;;;;;;1.42;1.00;;;;;;;17.26;100.00;96077.91;4976818;28;20207;-69
2021/08/30 10:02:34;;;;;;;1.30;0.73;;;;;;;17.40;100.00;96085.53;4974350;28;20207;-70
2021/08/30 10:05:03;;;;;;;1.08;0.82;;;;;;;17.83;98.43;96083.56;4974483;28;20943;-69
2021/08/30 10:07:31;;;;;;;1.25;0.63;;;;;;;18.40;97.58;96089.13;4974097;28;20256;-70
2021/08/30 10:10:01;;;;;;;0.95;0.60;;;;;;;18.52;97.62;96077.44;4974554;28;20307;-68
2021/08/30 10:12:27;;;;;;;1.25;0.90;;;;;;;18.44;94.53;96077.78;4974844;28;20203;-69
2021/08/30 10:14:55;;;;;;;0.68;0.60;;;;;;;18.38;97.95;96084.03;4975550;28;20199;-69
2021/08/30 10:17:22;;;;;;;1.08;0.70;;;;;;;18.43;96.34;96091.34;4974573;28;20210;-69
2021/08/30 10:19:58;;;;;;;1.42;0.93;;;;;;;18.40;97.08;96100.59;4974153;28;20203;-70
2021/08/30 10:22:25;;;;;;;1.70;0.90;;;;;;;18.33;95.86;96098.28;4975894;28;20260;-69
2021/08/30 10:24:52;;;;;;;1.15;0.90;;;;;;;17.92;96.95;96096.38;4975238;28;20210;-70
2021/08/30 10:27:29;;;;;;;1.00;0.80;;;;;;;17.78;96.32;96102.06;4975152;28;20385;-69
2021/08/30 10:30:05;;;;;;;2.72;0.90;;;;;;;17.82;98.21;96096.09;4972322;28;20246;-69
2021/08/30 10:32:38;;;;;;;1.70;0.90;;;;;;;17.78;97.96;96094.06;4975790;28;20210;-69
2021/08/30 10:35:14;;;;;;;1.88;0.95;;;;;;;17.94;99.04;96099.59;4975646;28;20214;-70
2021/08/30 10:37:48;;;;;;;1.15;0.80;;;;;;;17.90;97.81;96102.97;4975868;28;20209;-69
2021/08/30 10:40:16;;;;;;;1.35;1.00;;;;;;;18.03;98.79;96100.91;4975397;28;20218;-69
2021/08/30 10:42:42;;;;;;;1.38;1.00;;;;;;;18.18;96.35;96103.22;4975479;28;20600;-69
2021/08/30 10:45:11;;;;;;;1.33;1.10;;;;;;;18.28;97.88;96108.81;4975646;28;20234;-69
2021/08/30 10:47:39;;;;;;;1.10;1.00;;;;;;;18.16;96.99;96113.25;4975376;28;20208;-70
2021/08/30 10:50:07;;;;;;;3.05;1.40;;;;;;;18.34;97.28;96114.88;4975112;28;20237;-69
2021/08/30 10:52:41;;;;;;;1.30;1.20;;;;;;;18.53;96.93;96110.28;4974752;28;20959;-69
2021/08/30 10:55:16;;;;;;;2.30;1.30;;;;;;;19.03;95.69;96112.34;4975134;28;20682;-69
2021/08/30 10:57:48;;;;;;;1.83;1.27;;;;;;;19.06;95.89;96107.34;4975199;28;20206;-69
2021/08/30 11:00:15;;;;;;;1.13;0.80;;;;;;;18.98;91.27;96106.88;4975695;28;20207;-68
2021/08/30 11:02:47;;;;;;;1.63;1.00;;;;;;;19.14;91.04;96111.53;4975382;28;20235;-68
2021/08/30 11:05:14;;;;;;;1.92;0.90;;;;;;;19.27;90.37;96103.28;4974758;28;20239;-69
2021/08/30 11:07:42;;;;;;;1.27;0.90;;;;;;;19.54;92.19;96093.72;4968419;28;20215;-70
2021/08/30 11:10:10;;;;;;;3.20;0.80;;;;;;;20.00;93.43;96097.94;4973333;28;21069;-70
2021/08/30 11:12:41;;;;;;;2.42;0.90;;;;;;;20.00;87.60;96097.94;4973642;28;20227;-69
2021/08/30 11:15:09;;;;;;;1.77;0.90;;;;;;;19.54;89.19;96093.72;4974221;28;20259;-70
2021/08/30 11:17:36;;;;;;;1.30;0.85;;;;;;;19.23;88.09;96094.13;4973393;28;20211;-68
2021/08/30 11:20:05;;;;;;;1.55;0.80;;;;;;;19.59;86.52;96092.00;4973511;28;20215;-70
2021/08/30 11:22:32;;;;;;;1.50;0.93;;;;;;;20.07;88.48;96093.25;4973752;28;20213;-69
2021/08/30 11:25:01;;;;;;;1.85;1.00;;;;;;;20.04;86.61;96096.41;4974803;28;20207;-71
2021/08/30 11:27:32;;;;;;;1.70;0.80;;;;;;;19.96;84.34;96094.13;4972866;28;20649;-71